sensor_id;sensor_type;location;lat;lon;timestamp;temperature;humidity
22288;DHT22;11312;51.464;6.968;2022-10-16T00:00:28;13.50;99.90
22288;DHT22;11312;51.464;6.968;2022-10-16T00:02:55;13.60;99.90
22288;DHT22;11312;51.464;6.968;2022-10-16T00:05:20;13.60;99.90
22288;DHT22;11312;51.464;6.968;2022-10-16T00:07:46;13.50;99.90
22288;DHT22;11312;51.464;6.968;2022-10-16T00:10:12;13.50;99.90
22288;DHT22;11312;51.464;6.968;2022-10-16T00:12:37;13.50;99.90
22288;DHT22;11312;51.464;6.968;2022-10-16T00:15:03;13.40;99.90
22288;DHT22;11312;51.464;6.968;2022-10-16T00:17:30;13.40;99.90
22288;DHT22;11312;51.464;6.968;2022-10-16T00:19:55;13.40;99.90
22288;DHT22;11312;51.464;6.968;2022-10-16T00:22:22;13.40;99.90
22288;DHT22;11312;51.464;6.968;2022-10-16T00:24:47;13.40;99.90
22288;DHT22;11312;51.464;6.968;2022-10-16T00:27:13;13.40;99.90
22288;DHT22;11312;51.464;6.968;2022-10-16T00:29:39;13.40;99.90
22288;DHT22;11312;51.464;6.968;2022-10-16T00:32:04;13.40;99.90
22288;DHT22;11312;51.464;6.968;2022-10-16T00:34:30;13.30;99.90
22288;DHT22;11312;51.464;6.968;2022-10-16T00:36:55;13.40;99.90
22288;DHT22;11312;51.464;6.968;2022-10-16T00:39:21;13.40;99.90
22288;DHT22;11312;51.464;6.968;2022-10-16T00:41:47;13.40;99.90
22288;DHT22;11312;51.464;6.968;2022-10-16T00:44:48;13.50;99.90
22288;DHT22;11312;51.464;6.968;2022-10-16T00:47:22;13.50;99.90
22288;DHT22;11312;51.464;6.968;2022-10-16T00:49:51;13.60;99.90
22288;DHT22;11312;51.464;6.968;2022-10-16T00:52:19;13.60;99.90
22288;DHT22;11312;51.464;6.968;2022-10-16T00:54:46;13.50;99.90
22288;DHT22;11312;51.464;6.968;2022-10-16T00:57:12;13.50;99.90
22288;DHT22;11312;51.464;6.968;2022-10-16T00:59:39;13.40;99.90
22288;DHT22;11312;51.464;6.968;2022-10-16T01:02:08;13.40;99.90
22288;DHT22;11312;51.464;6.968;2022-10-16T01:04:49;13.40;99.90
22288;DHT22;11312;51.464;6.968;2022-10-16T01:07:41;13.60;99.90
22288;DHT22;11312;51.464;6.968;2022-10-16T01:18:11;13.50;99.90
22288;DHT22;11312;51.464;6.968;2022-10-16T01:20:45;13.50;99.90
22288;DHT22;11312;51.464;6.968;2022-10-16T01:26:03;13.40;99.90
22288;DHT22;11312;51.464;6.968;2022-10-16T01:28:41;13.40;99.90
22288;DHT22;11312;51.464;6.968;2022-10-16T01:31:11;13.50;99.90
22288;DHT22;11312;51.464;6.968;2022-10-16T01:33:46;13.40;99.90
22288;DHT22;11312;51.464;6.968;2022-10-16T01:36:21;13.40;99.90
22288;DHT22;11312;51.464;6.968;2022-10-16T01:38:51;13.40;99.90
22288;DHT22;11312;51.464;6.968;2022-10-16T01:41:23;13.40;99.90
22288;DHT22;11312;51.464;6.968;2022-10-16T01:46:21;13.30;99.90
22288;DHT22;11312;51.464;6.968;2022-10-16T01:48:49;13.30;99.90
22288;DHT22;11312;51.464;6.968;2022-10-16T01:51:17;13.30;99.90
22288;DHT22;11312;51.464;6.968;2022-10-16T01:53:46;13.50;99.90
22288;DHT22;11312;51.464;6.968;2022-10-16T01:56:15;13.40;99.90
22288;DHT22;11312;51.464;6.968;2022-10-16T01:58:48;13.40;99.90
22288;DHT22;11312;51.464;6.968;2022-10-16T02:01:17;13.40;99.90
22288;DHT22;11312;51.464;6.968;2022-10-16T02:03:44;13.40;99.90
22288;DHT22;11312;51.464;6.968;2022-10-16T02:06:12;13.50;99.90
22288;DHT22;11312;51.464;6.968;2022-10-16T02:08:38;13.50;99.90
22288;DHT22;11312;51.464;6.968;2022-10-16T02:11:05;13.50;99.90
22288;DHT22;11312;51.464;6.968;2022-10-16T02:13:55;13.50;99.90
22288;DHT22;11312;51.464;6.968;2022-10-16T02:16:20;13.60;99.90
22288;DHT22;11312;51.464;6.968;2022-10-16T02:18:45;13.60;99.90
22288;DHT22;11312;51.464;6.968;2022-10-16T02:21:43;13.60;99.90
22288;DHT22;11312;51.464;6.968;2022-10-16T02:24:18;13.60;99.90
22288;DHT22;11312;51.464;6.968;2022-10-16T02:29:26;13.70;99.90
22288;DHT22;11312;51.464;6.968;2022-10-16T02:31:57;13.50;99.90
22288;DHT22;11312;51.464;6.968;2022-10-16T02:34:24;13.50;99.90
22288;DHT22;11312;51.464;6.968;2022-10-16T02:36:51;13.50;99.90
22288;DHT22;11312;51.464;6.968;2022-10-16T02:39:18;13.50;99.90
22288;DHT22;11312;51.464;6.968;2022-10-16T02:41:45;13.50;99.90
22288;DHT22;11312;51.464;6.968;2022-10-16T02:44:10;13.50;99.90
22288;DHT22;11312;51.464;6.968;2022-10-16T02:46:36;13.60;99.90
22288;DHT22;11312;51.464;6.968;2022-10-16T02:49:02;13.70;99.90
22288;DHT22;11312;51.464;6.968;2022-10-16T02:51:27;13.70;99.90
22288;DHT22;11312;51.464;6.968;2022-10-16T02:53:53;13.70;99.90
22288;DHT22;11312;51.464;6.968;2022-10-16T02:56:19;13.80;99.90
22288;DHT22;11312;51.464;6.968;2022-10-16T02:58:44;13.70;99.90
22288;DHT22;11312;51.464;6.968;2022-10-16T03:01:10;13.70;99.90
22288;DHT22;11312;51.464;6.968;2022-10-16T03:03:37;13.70;99.90
22288;DHT22;11312;51.464;6.968;2022-10-16T03:06:03;13.70;99.90
22288;DHT22;11312;51.464;6.968;2022-10-16T03:08:28;13.70;99.90
22288;DHT22;11312;51.464;6.968;2022-10-16T03:10:55;13.70;99.90
22288;DHT22;11312;51.464;6.968;2022-10-16T03:13:20;13.70;99.90
22288;DHT22;11312;51.464;6.968;2022-10-16T03:15:46;13.70;99.90
22288;DHT22;11312;51.464;6.968;2022-10-16T03:18:12;13.70;99.90
22288;DHT22;11312;51.464;6.968;2022-10-16T03:20:37;13.70;99.90
22288;DHT22;11312;51.464;6.968;2022-10-16T03:23:03;13.70;99.90
22288;DHT22;11312;51.464;6.968;2022-10-16T03:25:29;13.70;99.90
22288;DHT22;11312;51.464;6.968;2022-10-16T03:27:54;13.70;99.90
22288;DHT22;11312;51.464;6.968;2022-10-16T03:30:20;13.70;99.90
22288;DHT22;11312;51.464;6.968;2022-10-16T03:32:46;13.50;99.90
22288;DHT22;11312;51.464;6.968;2022-10-16T03:35:11;13.60;99.90
22288;DHT22;11312;51.464;6.968;2022-10-16T03:37:37;13.50;99.90
22288;DHT22;11312;51.464;6.968;2022-10-16T03:40:03;13.40;99.90
22288;DHT22;11312;51.464;6.968;2022-10-16T03:42:29;13.50;99.90
22288;DHT22;11312;51.464;6.968;2022-10-16T03:44:55;13.60;99.90
22288;DHT22;11312;51.464;6.968;2022-10-16T03:47:20;13.60;99.90
22288;DHT22;11312;51.464;6.968;2022-10-16T03:49:49;13.50;99.90
22288;DHT22;11312;51.464;6.968;2022-10-16T03:52:14;13.40;99.90
22288;DHT22;11312;51.464;6.968;2022-10-16T03:54:40;13.50;99.90
22288;DHT22;11312;51.464;6.968;2022-10-16T03:57:05;13.40;99.90
22288;DHT22;11312;51.464;6.968;2022-10-16T03:59:31;13.40;99.90
22288;DHT22;11312;51.464;6.968;2022-10-16T04:01:57;13.40;99.90
22288;DHT22;11312;51.464;6.968;2022-10-16T04:04:22;13.20;99.90
22288;DHT22;11312;51.464;6.968;2022-10-16T04:06:48;13.30;99.90
22288;DHT22;11312;51.464;6.968;2022-10-16T04:09:13;13.10;99.90
22288;DHT22;11312;51.464;6.968;2022-10-16T04:11:39;13.10;99.90
22288;DHT22;11312;51.464;6.968;2022-10-16T04:14:05;13.20;99.90
22288;DHT22;11312;51.464;6.968;2022-10-16T04:16:30;13.30;99.90
22288;DHT22;11312;51.464;6.968;2022-10-16T04:18:56;13.20;99.90
22288;DHT22;11312;51.464;6.968;2022-10-16T04:21:21;13.20;99.90
22288;DHT22;11312;51.464;6.968;2022-10-16T04:23:48;13.20;99.90
22288;DHT22;11312;51.464;6.968;2022-10-16T04:26:14;13.20;99.90
22288;DHT22;11312;51.464;6.968;2022-10-16T04:28:40;13.20;99.90
22288;DHT22;11312;51.464;6.968;2022-10-16T04:31:06;13.20;99.90
22288;DHT22;11312;51.464;6.968;2022-10-16T04:33:32;13.20;99.90
22288;DHT22;11312;51.464;6.968;2022-10-16T04:35:59;13.10;99.90
22288;DHT22;11312;51.464;6.968;2022-10-16T04:38:25;13.00;99.90
22288;DHT22;11312;51.464;6.968;2022-10-16T04:40:51;13.10;99.90
22288;DHT22;11312;51.464;6.968;2022-10-16T04:43:17;13.10;99.90
22288;DHT22;11312;51.464;6.968;2022-10-16T04:45:43;13.20;99.90
22288;DHT22;11312;51.464;6.968;2022-10-16T04:48:09;13.20;99.90
22288;DHT22;11312;51.464;6.968;2022-10-16T04:50:34;13.20;99.90
22288;DHT22;11312;51.464;6.968;2022-10-16T04:53:00;13.10;99.90
22288;DHT22;11312;51.464;6.968;2022-10-16T04:55:26;13.10;99.90
22288;DHT22;11312;51.464;6.968;2022-10-16T04:57:51;13.10;99.90
22288;DHT22;11312;51.464;6.968;2022-10-16T05:00:17;13.00;99.90
22288;DHT22;11312;51.464;6.968;2022-10-16T05:02:43;13.00;99.90
22288;DHT22;11312;51.464;6.968;2022-10-16T05:05:08;13.00;99.90
22288;DHT22;11312;51.464;6.968;2022-10-16T05:07:34;13.10;99.90
22288;DHT22;11312;51.464;6.968;2022-10-16T05:09:59;13.00;99.90
22288;DHT22;11312;51.464;6.968;2022-10-16T05:12:25;13.10;99.90
22288;DHT22;11312;51.464;6.968;2022-10-16T05:14:51;13.20;99.90
22288;DHT22;11312;51.464;6.968;2022-10-16T05:17:16;13.10;99.90
22288;DHT22;11312;51.464;6.968;2022-10-16T05:19:42;13.00;99.90
22288;DHT22;11312;51.464;6.968;2022-10-16T05:22:07;13.00;99.90
22288;DHT22;11312;51.464;6.968;2022-10-16T05:24:33;13.20;99.90
22288;DHT22;11312;51.464;6.968;2022-10-16T05:26:59;13.10;99.90
22288;DHT22;11312;51.464;6.968;2022-10-16T05:29:24;13.10;99.90
22288;DHT22;11312;51.464;6.968;2022-10-16T05:31:52;13.10;99.90
22288;DHT22;11312;51.464;6.968;2022-10-16T05:34:18;13.10;99.90
22288;DHT22;11312;51.464;6.968;2022-10-16T05:36:43;13.10;99.90
22288;DHT22;11312;51.464;6.968;2022-10-16T05:39:10;13.20;99.90
22288;DHT22;11312;51.464;6.968;2022-10-16T05:41:36;13.20;99.90
22288;DHT22;11312;51.464;6.968;2022-10-16T05:44:05;13.20;99.90
22288;DHT22;11312;51.464;6.968;2022-10-16T05:46:32;13.20;99.90
22288;DHT22;11312;51.464;6.968;2022-10-16T05:48:57;13.20;99.90
22288;DHT22;11312;51.464;6.968;2022-10-16T05:51:23;13.20;99.90
22288;DHT22;11312;51.464;6.968;2022-10-16T05:53:49;13.20;99.90
22288;DHT22;11312;51.464;6.968;2022-10-16T05:56:15;13.20;99.90
22288;DHT22;11312;51.464;6.968;2022-10-16T05:58:41;13.20;99.90
22288;DHT22;11312;51.464;6.968;2022-10-16T06:01:11;13.10;99.90
22288;DHT22;11312;51.464;6.968;2022-10-16T06:03:37;13.10;99.90
22288;DHT22;11312;51.464;6.968;2022-10-16T06:06:17;13.00;99.90
22288;DHT22;11312;51.464;6.968;2022-10-16T06:08:44;13.10;99.90
22288;DHT22;11312;51.464;6.968;2022-10-16T06:11:15;13.00;99.90
22288;DHT22;11312;51.464;6.968;2022-10-16T06:13:41;13.00;99.90
22288;DHT22;11312;51.464;6.968;2022-10-16T06:16:09;12.90;99.90
22288;DHT22;11312;51.464;6.968;2022-10-16T06:18:34;12.90;99.90
22288;DHT22;11312;51.464;6.968;2022-10-16T06:21:07;12.90;99.90
22288;DHT22;11312;51.464;6.968;2022-10-16T06:23:33;13.00;99.90
22288;DHT22;11312;51.464;6.968;2022-10-16T06:26:20;13.00;99.90
22288;DHT22;11312;51.464;6.968;2022-10-16T06:28:46;13.00;99.90
22288;DHT22;11312;51.464;6.968;2022-10-16T06:31:13;13.10;99.90
22288;DHT22;11312;51.464;6.968;2022-10-16T06:33:39;13.20;99.90
22288;DHT22;11312;51.464;6.968;2022-10-16T06:36:15;13.20;99.90
22288;DHT22;11312;51.464;6.968;2022-10-16T06:38:42;13.20;99.90
22288;DHT22;11312;51.464;6.968;2022-10-16T06:41:11;13.20;99.90
22288;DHT22;11312;51.464;6.968;2022-10-16T06:43:37;13.20;99.90
22288;DHT22;11312;51.464;6.968;2022-10-16T06:46:04;13.30;99.90
22288;DHT22;11312;51.464;6.968;2022-10-16T06:48:31;13.40;99.90
22288;DHT22;11312;51.464;6.968;2022-10-16T06:53:28;13.50;99.90
22288;DHT22;11312;51.464;6.968;2022-10-16T06:55:54;13.60;99.90
22288;DHT22;11312;51.464;6.968;2022-10-16T06:58:20;13.60;99.90
22288;DHT22;11312;51.464;6.968;2022-10-16T07:00:46;13.60;99.90
22288;DHT22;11312;51.464;6.968;2022-10-16T07:03:12;13.60;99.90
22288;DHT22;11312;51.464;6.968;2022-10-16T07:05:39;13.60;99.90
22288;DHT22;11312;51.464;6.968;2022-10-16T07:08:05;13.50;99.90
22288;DHT22;11312;51.464;6.968;2022-10-16T07:10:32;13.40;99.90
22288;DHT22;11312;51.464;6.968;2022-10-16T07:12:58;13.40;99.90
22288;DHT22;11312;51.464;6.968;2022-10-16T07:15:25;13.40;99.90
22288;DHT22;11312;51.464;6.968;2022-10-16T07:17:51;13.40;99.90
22288;DHT22;11312;51.464;6.968;2022-10-16T07:20:17;13.40;99.90
22288;DHT22;11312;51.464;6.968;2022-10-16T07:22:42;13.40;99.90
22288;DHT22;11312;51.464;6.968;2022-10-16T07:25:08;13.30;99.90
22288;DHT22;11312;51.464;6.968;2022-10-16T07:27:34;13.40;99.90
22288;DHT22;11312;51.464;6.968;2022-10-16T07:30:00;13.20;99.90
22288;DHT22;11312;51.464;6.968;2022-10-16T07:32:26;13.40;99.90
22288;DHT22;11312;51.464;6.968;2022-10-16T07:34:52;13.40;99.90
22288;DHT22;11312;51.464;6.968;2022-10-16T07:37:18;13.50;99.90
22288;DHT22;11312;51.464;6.968;2022-10-16T07:39:44;13.50;99.90
22288;DHT22;11312;51.464;6.968;2022-10-16T07:42:09;13.70;99.90
22288;DHT22;11312;51.464;6.968;2022-10-16T07:44:35;13.90;99.90
22288;DHT22;11312;51.464;6.968;2022-10-16T07:47:01;13.90;99.90
22288;DHT22;11312;51.464;6.968;2022-10-16T07:49:27;13.90;99.90
22288;DHT22;11312;51.464;6.968;2022-10-16T07:51:53;14.00;99.90
22288;DHT22;11312;51.464;6.968;2022-10-16T07:54:18;14.10;99.90
22288;DHT22;11312;51.464;6.968;2022-10-16T07:56:44;14.30;99.90
22288;DHT22;11312;51.464;6.968;2022-10-16T07:59:10;14.30;99.90
22288;DHT22;11312;51.464;6.968;2022-10-16T08:01:36;14.50;99.90
22288;DHT22;11312;51.464;6.968;2022-10-16T08:04:01;14.50;99.90
22288;DHT22;11312;51.464;6.968;2022-10-16T08:06:27;14.50;99.90
22288;DHT22;11312;51.464;6.968;2022-10-16T08:08:52;14.60;99.90
22288;DHT22;11312;51.464;6.968;2022-10-16T08:11:18;14.70;99.90
22288;DHT22;11312;51.464;6.968;2022-10-16T08:13:44;14.80;99.90
22288;DHT22;11312;51.464;6.968;2022-10-16T08:16:09;14.90;99.90
22288;DHT22;11312;51.464;6.968;2022-10-16T08:18:39;15.50;99.90
22288;DHT22;11312;51.464;6.968;2022-10-16T08:21:06;16.10;99.90
22288;DHT22;11312;51.464;6.968;2022-10-16T08:23:32;16.30;99.90
22288;DHT22;11312;51.464;6.968;2022-10-16T08:26:03;16.40;99.90
22288;DHT22;11312;51.464;6.968;2022-10-16T08:28:29;16.60;99.90
22288;DHT22;11312;51.464;6.968;2022-10-16T08:30:54;16.90;99.90
22288;DHT22;11312;51.464;6.968;2022-10-16T08:33:22;16.80;99.90
22288;DHT22;11312;51.464;6.968;2022-10-16T08:35:53;16.40;99.90
22288;DHT22;11312;51.464;6.968;2022-10-16T08:38:19;17.10;99.90
22288;DHT22;11312;51.464;6.968;2022-10-16T08:40:45;16.90;99.90
22288;DHT22;11312;51.464;6.968;2022-10-16T08:49:11;19.20;99.90
22288;DHT22;11312;51.464;6.968;2022-10-16T08:51:39;19.70;99.90
22288;DHT22;11312;51.464;6.968;2022-10-16T08:56:51;20.30;99.90
22288;DHT22;11312;51.464;6.968;2022-10-16T08:59:19;20.50;99.90
22288;DHT22;11312;51.464;6.968;2022-10-16T09:01:46;20.20;99.90
22288;DHT22;11312;51.464;6.968;2022-10-16T09:07:19;21.80;99.90
22288;DHT22;11312;51.464;6.968;2022-10-16T09:10:15;20.90;99.90
22288;DHT22;11312;51.464;6.968;2022-10-16T09:12:51;20.70;99.90
22288;DHT22;11312;51.464;6.968;2022-10-16T09:17:55;21.10;99.90
22288;DHT22;11312;51.464;6.968;2022-10-16T09:20:27;21.50;99.90
22288;DHT22;11312;51.464;6.968;2022-10-16T09:23:30;21.80;99.90
22288;DHT22;11312;51.464;6.968;2022-10-16T09:25:58;22.00;99.90
22288;DHT22;11312;51.464;6.968;2022-10-16T09:28:24;21.10;99.90
22288;DHT22;11312;51.464;6.968;2022-10-16T09:30:49;20.50;99.90
22288;DHT22;11312;51.464;6.968;2022-10-16T09:33:18;20.90;99.90
22288;DHT22;11312;51.464;6.968;2022-10-16T09:35:49;21.30;99.90
22288;DHT22;11312;51.464;6.968;2022-10-16T09:38:35;20.90;99.90
22288;DHT22;11312;51.464;6.968;2022-10-16T09:41:12;21.30;99.90
22288;DHT22;11312;51.464;6.968;2022-10-16T09:43:41;21.10;99.90
22288;DHT22;11312;51.464;6.968;2022-10-16T09:46:30;21.30;99.90
22288;DHT22;11312;51.464;6.968;2022-10-16T09:49:01;21.20;99.90
22288;DHT22;11312;51.464;6.968;2022-10-16T09:51:33;21.20;99.90
22288;DHT22;11312;51.464;6.968;2022-10-16T09:54:11;21.00;99.90
22288;DHT22;11312;51.464;6.968;2022-10-16T09:56:38;21.50;99.90
22288;DHT22;11312;51.464;6.968;2022-10-16T09:59:19;20.80;99.90
22288;DHT22;11312;51.464;6.968;2022-10-16T10:01:51;21.80;99.90
22288;DHT22;11312;51.464;6.968;2022-10-16T10:04:19;21.80;99.90
22288;DHT22;11312;51.464;6.968;2022-10-16T10:06:57;22.40;99.90
22288;DHT22;11312;51.464;6.968;2022-10-16T10:09:25;21.90;99.90
22288;DHT22;11312;51.464;6.968;2022-10-16T10:11:52;22.60;99.90
22288;DHT22;11312;51.464;6.968;2022-10-16T10:19:41;23.20;99.90
22288;DHT22;11312;51.464;6.968;2022-10-16T10:38:54;22.10;99.90
22288;DHT22;11312;51.464;6.968;2022-10-16T10:54:32;22.00;99.90
22288;DHT22;11312;51.464;6.968;2022-10-16T10:57:21;22.20;99.90
22288;DHT22;11312;51.464;6.968;2022-10-16T11:08:19;23.80;99.90
22288;DHT22;11312;51.464;6.968;2022-10-16T11:10:47;23.50;99.90
22288;DHT22;11312;51.464;6.968;2022-10-16T11:15:59;25.20;99.90
22288;DHT22;11312;51.464;6.968;2022-10-16T11:21:18;25.50;99.90
22288;DHT22;11312;51.464;6.968;2022-10-16T11:23:53;27.00;99.90
22288;DHT22;11312;51.464;6.968;2022-10-16T11:26:25;29.30;99.90
22288;DHT22;11312;51.464;6.968;2022-10-16T11:28:51;29.90;99.90
22288;DHT22;11312;51.464;6.968;2022-10-16T11:34:09;31.90;98.30
22288;DHT22;11312;51.464;6.968;2022-10-16T11:36:47;32.20;91.20
22288;DHT22;11312;51.464;6.968;2022-10-16T11:39:22;33.30;85.10
22288;DHT22;11312;51.464;6.968;2022-10-16T11:42:19;33.60;84.30
22288;DHT22;11312;51.464;6.968;2022-10-16T11:45:07;33.90;89.80
22288;DHT22;11312;51.464;6.968;2022-10-16T11:51:18;32.40;78.40
22288;DHT22;11312;51.464;6.968;2022-10-16T11:56:16;29.30;85.80
22288;DHT22;11312;51.464;6.968;2022-10-16T12:01:51;32.20;74.00
22288;DHT22;11312;51.464;6.968;2022-10-16T12:04:25;32.60;74.60
22288;DHT22;11312;51.464;6.968;2022-10-16T12:07:07;33.60;76.20
22288;DHT22;11312;51.464;6.968;2022-10-16T12:09:38;32.40;71.90
22288;DHT22;11312;51.464;6.968;2022-10-16T12:12:04;32.60;70.90
22288;DHT22;11312;51.464;6.968;2022-10-16T12:17:34;31.70;71.40
22288;DHT22;11312;51.464;6.968;2022-10-16T12:22:50;34.40;75.90
22288;DHT22;11312;51.464;6.968;2022-10-16T12:27:56;33.40;67.10
22288;DHT22;11312;51.464;6.968;2022-10-16T12:30:24;30.40;81.60
22288;DHT22;11312;51.464;6.968;2022-10-16T12:33:05;31.90;76.40
22288;DHT22;11312;51.464;6.968;2022-10-16T12:35:42;30.10;78.50
22288;DHT22;11312;51.464;6.968;2022-10-16T12:38:27;29.50;86.60
22288;DHT22;11312;51.464;6.968;2022-10-16T12:41:02;28.80;89.50
22288;DHT22;11312;51.464;6.968;2022-10-16T12:43:42;29.10;81.40
22288;DHT22;11312;51.464;6.968;2022-10-16T12:48:34;25.80;93.30
22288;DHT22;11312;51.464;6.968;2022-10-16T12:51:23;25.20;93.80
22288;DHT22;11312;51.464;6.968;2022-10-16T13:02:45;29.60;84.50
22288;DHT22;11312;51.464;6.968;2022-10-16T13:05:38;28.30;89.00
22288;DHT22;11312;51.464;6.968;2022-10-16T13:08:16;30.20;76.10
22288;DHT22;11312;51.464;6.968;2022-10-16T13:21:33;29.00;86.60
22288;DHT22;11312;51.464;6.968;2022-10-16T13:29:33;31.30;73.20
22288;DHT22;11312;51.464;6.968;2022-10-16T13:32:01;29.90;74.50
22288;DHT22;11312;51.464;6.968;2022-10-16T13:34:27;28.90;84.00
22288;DHT22;11312;51.464;6.968;2022-10-16T13:36:53;29.30;84.50
22288;DHT22;11312;51.464;6.968;2022-10-16T13:39:28;29.90;83.10
22288;DHT22;11312;51.464;6.968;2022-10-16T13:42:11;27.60;90.80
22288;DHT22;11312;51.464;6.968;2022-10-16T13:44:47;25.60;93.20
22288;DHT22;11312;51.464;6.968;2022-10-16T13:47:25;25.50;93.80
22288;DHT22;11312;51.464;6.968;2022-10-16T13:50:03;24.10;96.40
22288;DHT22;11312;51.464;6.968;2022-10-16T13:52:29;23.30;99.90
22288;DHT22;11312;51.464;6.968;2022-10-16T13:54:55;22.50;99.90
22288;DHT22;11312;51.464;6.968;2022-10-16T13:57:23;22.40;99.90
22288;DHT22;11312;51.464;6.968;2022-10-16T13:59:50;22.80;99.90
22288;DHT22;11312;51.464;6.968;2022-10-16T14:02:26;24.40;99.90
22288;DHT22;11312;51.464;6.968;2022-10-16T14:04:54;24.40;99.90
22288;DHT22;11312;51.464;6.968;2022-10-16T14:07:28;24.00;99.90
22288;DHT22;11312;51.464;6.968;2022-10-16T14:09:54;23.80;99.90
22288;DHT22;11312;51.464;6.968;2022-10-16T14:12:22;23.00;99.90
22288;DHT22;11312;51.464;6.968;2022-10-16T14:14:51;23.00;99.90
22288;DHT22;11312;51.464;6.968;2022-10-16T14:17:24;23.40;99.90
22288;DHT22;11312;51.464;6.968;2022-10-16T14:19:54;22.60;99.90
22288;DHT22;11312;51.464;6.968;2022-10-16T14:25:08;21.50;99.90
22288;DHT22;11312;51.464;6.968;2022-10-16T14:27:38;20.90;99.90
22288;DHT22;11312;51.464;6.968;2022-10-16T14:30:18;20.60;99.90
22288;DHT22;11312;51.464;6.968;2022-10-16T14:33:02;20.40;99.90
22288;DHT22;11312;51.464;6.968;2022-10-16T14:35:30;20.00;99.90
22288;DHT22;11312;51.464;6.968;2022-10-16T14:37:58;19.80;99.90
22288;DHT22;11312;51.464;6.968;2022-10-16T14:40:35;19.80;99.90
22288;DHT22;11312;51.464;6.968;2022-10-16T14:43:02;20.10;99.90
22288;DHT22;11312;51.464;6.968;2022-10-16T14:45:32;20.20;99.90
22288;DHT22;11312;51.464;6.968;2022-10-16T14:48:03;20.30;99.90
22288;DHT22;11312;51.464;6.968;2022-10-16T14:50:29;20.10;99.90
22288;DHT22;11312;51.464;6.968;2022-10-16T14:52:55;20.00;99.90
22288;DHT22;11312;51.464;6.968;2022-10-16T14:55:21;20.00;99.90
22288;DHT22;11312;51.464;6.968;2022-10-16T14:57:47;19.90;99.90
22288;DHT22;11312;51.464;6.968;2022-10-16T15:00:20;19.80;99.90
22288;DHT22;11312;51.464;6.968;2022-10-16T15:02:48;19.80;99.90
22288;DHT22;11312;51.464;6.968;2022-10-16T15:05:26;19.60;99.90
22288;DHT22;11312;51.464;6.968;2022-10-16T15:07:53;19.50;99.90
22288;DHT22;11312;51.464;6.968;2022-10-16T15:10:20;19.40;99.90
22288;DHT22;11312;51.464;6.968;2022-10-16T15:12:47;19.20;99.90
22288;DHT22;11312;51.464;6.968;2022-10-16T15:17:58;18.90;99.90
22288;DHT22;11312;51.464;6.968;2022-10-16T15:20:28;18.90;99.90
22288;DHT22;11312;51.464;6.968;2022-10-16T15:22:53;18.80;99.90
22288;DHT22;11312;51.464;6.968;2022-10-16T15:25:52;18.70;99.90
22288;DHT22;11312;51.464;6.968;2022-10-16T15:28:19;18.80;99.90
22288;DHT22;11312;51.464;6.968;2022-10-16T15:30:45;18.70;99.90
22288;DHT22;11312;51.464;6.968;2022-10-16T15:33:16;18.70;99.90
22288;DHT22;11312;51.464;6.968;2022-10-16T15:35:46;18.60;99.90
22288;DHT22;11312;51.464;6.968;2022-10-16T15:38:12;18.60;99.90
22288;DHT22;11312;51.464;6.968;2022-10-16T15:40:39;18.50;99.90
22288;DHT22;11312;51.464;6.968;2022-10-16T15:43:05;18.40;99.90
22288;DHT22;11312;51.464;6.968;2022-10-16T15:45:31;18.30;99.90
22288;DHT22;11312;51.464;6.968;2022-10-16T15:47:56;18.40;99.90
22288;DHT22;11312;51.464;6.968;2022-10-16T15:50:22;18.40;99.90
22288;DHT22;11312;51.464;6.968;2022-10-16T15:52:50;18.30;99.90
22288;DHT22;11312;51.464;6.968;2022-10-16T15:55:15;18.20;99.90
22288;DHT22;11312;51.464;6.968;2022-10-16T15:57:42;18.20;99.90
22288;DHT22;11312;51.464;6.968;2022-10-16T16:00:19;18.10;99.90
22288;DHT22;11312;51.464;6.968;2022-10-16T16:02:53;18.00;99.90
22288;DHT22;11312;51.464;6.968;2022-10-16T16:05:20;18.10;99.90
22288;DHT22;11312;51.464;6.968;2022-10-16T16:07:46;18.00;99.90
22288;DHT22;11312;51.464;6.968;2022-10-16T16:10:12;17.80;99.90
22288;DHT22;11312;51.464;6.968;2022-10-16T16:12:38;17.80;99.90
22288;DHT22;11312;51.464;6.968;2022-10-16T16:15:05;17.70;99.90
22288;DHT22;11312;51.464;6.968;2022-10-16T16:17:33;17.70;99.90
22288;DHT22;11312;51.464;6.968;2022-10-16T16:19:58;17.60;99.90
22288;DHT22;11312;51.464;6.968;2022-10-16T16:22:24;17.60;99.90
22288;DHT22;11312;51.464;6.968;2022-10-16T16:24:50;17.60;99.90
22288;DHT22;11312;51.464;6.968;2022-10-16T16:27:16;17.50;99.90
22288;DHT22;11312;51.464;6.968;2022-10-16T16:29:42;17.50;99.90
22288;DHT22;11312;51.464;6.968;2022-10-16T16:32:07;17.40;99.90
22288;DHT22;11312;51.464;6.968;2022-10-16T16:34:33;17.40;99.90
22288;DHT22;11312;51.464;6.968;2022-10-16T16:36:59;17.30;99.90
22288;DHT22;11312;51.464;6.968;2022-10-16T16:39:24;17.30;99.90
22288;DHT22;11312;51.464;6.968;2022-10-16T16:41:50;17.30;99.90
22288;DHT22;11312;51.464;6.968;2022-10-16T16:44:16;17.20;99.90
22288;DHT22;11312;51.464;6.968;2022-10-16T16:46:43;17.10;99.90
22288;DHT22;11312;51.464;6.968;2022-10-16T16:49:11;17.10;99.90
22288;DHT22;11312;51.464;6.968;2022-10-16T16:51:37;17.00;99.90
22288;DHT22;11312;51.464;6.968;2022-10-16T16:54:03;16.90;99.90
22288;DHT22;11312;51.464;6.968;2022-10-16T16:56:29;16.90;99.90
22288;DHT22;11312;51.464;6.968;2022-10-16T16:58:56;16.70;99.90
22288;DHT22;11312;51.464;6.968;2022-10-16T17:01:25;16.90;99.90
22288;DHT22;11312;51.464;6.968;2022-10-16T17:03:53;16.80;99.90
22288;DHT22;11312;51.464;6.968;2022-10-16T17:06:20;16.70;99.90
22288;DHT22;11312;51.464;6.968;2022-10-16T17:08:47;16.70;99.90
22288;DHT22;11312;51.464;6.968;2022-10-16T17:11:15;16.70;99.90
22288;DHT22;11312;51.464;6.968;2022-10-16T17:13:41;16.70;99.90
22288;DHT22;11312;51.464;6.968;2022-10-16T17:16:07;16.70;99.90
22288;DHT22;11312;51.464;6.968;2022-10-16T17:18:33;16.70;99.90
22288;DHT22;11312;51.464;6.968;2022-10-16T17:21:01;16.70;99.90
22288;DHT22;11312;51.464;6.968;2022-10-16T17:23:29;16.70;99.90
22288;DHT22;11312;51.464;6.968;2022-10-16T17:25:54;16.70;99.90
22288;DHT22;11312;51.464;6.968;2022-10-16T17:28:20;16.70;99.90
22288;DHT22;11312;51.464;6.968;2022-10-16T17:30:46;16.80;99.90
22288;DHT22;11312;51.464;6.968;2022-10-16T17:33:12;16.60;99.90
22288;DHT22;11312;51.464;6.968;2022-10-16T17:35:44;16.60;99.90
22288;DHT22;11312;51.464;6.968;2022-10-16T17:38:12;16.60;99.90
22288;DHT22;11312;51.464;6.968;2022-10-16T17:40:39;16.60;99.90
22288;DHT22;11312;51.464;6.968;2022-10-16T17:43:05;16.60;99.90
22288;DHT22;11312;51.464;6.968;2022-10-16T17:45:35;16.60;99.90
22288;DHT22;11312;51.464;6.968;2022-10-16T17:48:00;16.50;99.90
22288;DHT22;11312;51.464;6.968;2022-10-16T17:50:26;16.60;99.90
22288;DHT22;11312;51.464;6.968;2022-10-16T17:52:52;16.50;99.90
22288;DHT22;11312;51.464;6.968;2022-10-16T17:55:18;16.50;99.90